Mckinley Sea — WDE5024 — position and weather

sailwx.info

Track history (hours):
 
Tides and Currents Weather Stations Pressure Air Temp Water Temp Dewpoint Dewpoint Depression Visibility Wind Speed Wind Dir Waves Ship Positions

Mckinley Sea

Owner: Kirby Offshore Marine, LLC, Staten Island, NY. More information available from US FCC via Universal Licensing System and Coast Guard Vessel Documentation Center.

Last reported at 2017-Jul-22 18:03 UTC. Time now 2017-Jul-23 10:52 UTC.
Position N 40°30' W 074°09'.

Length 41 m; draft 6 m.

Type: . MMSI: 367360980.

Date/timePositionNaut miles runAvg speedWind from/ knotsBaromVisibWave heightAir tempDewpointWater temp
2017-Jul-22 18:03N 40°30' W 074°09'0 0.0
2017-Jul-22 08:23N 40°30' W 074°09'3 6.8
2017-Jul-22 08:00N 40°29' W 074°05'3 5.7
2017-Jul-22 07:28N 40°31' W 074°03'4 8.8
2017-Jul-22 07:00N 40°35' W 074°02'4 8.2
2017-Jul-22 06:31N 40°39' W 074°03'0 0.4
2017-Jul-22 05:58N 40°39' W 074°03'0 0.0
2017-Jul-22 05:28N 40°39' W 074°03'0 0.0
2017-Jul-22 04:58N 40°39' W 074°03'0 0.0
2017-Jul-22 04:28N 40°39' W 074°03'0 0.1
2017-Jul-22 03:58N 40°39' W 074°03'0 0.0
2017-Jul-22 03:28N 40°39' W 074°03'0 0.4
2017-Jul-22 03:00N 40°39' W 074°03'3 5.0
2017-Jul-22 02:28N 40°39' W 074°07'0 0.0
2017-Jul-22 01:58N 40°39' W 074°07'0 0.0
2017-Jul-22 01:28N 40°39' W 074°07'0 0.0
2017-Jul-22 00:58N 40°39' W 074°07'0 0.0
2017-Jul-22 00:28N 40°39' W 074°07'0 0.0
2017-Jul-21 23:58N 40°39' W 074°07'0 0.0
2017-Jul-21 23:22N 40°39' W 074°07'0 0.0
2017-Jul-21 22:58N 40°39' W 074°07'0 0.0
2017-Jul-21 22:28N 40°39' W 074°07'0 0.8
2017-Jul-21 22:00N 40°39' W 074°06'3 5.3
2017-Jul-21 21:30N 40°39' W 074°03'0 0.0
2017-Jul-21 21:00N 40°39' W 074°03'0 0.1
2017-Jul-21 20:30N 40°39' W 074°03'0 0.1
2017-Jul-21 20:00N 40°39' W 074°03'0 0.1
2017-Jul-21 19:30N 40°39' W 074°03'0 0.0
2017-Jul-21 19:00N 40°39' W 074°03'0 0.0
2017-Jul-21 18:30N 40°39' W 074°03'0 0.0
2017-Jul-21 18:00N 40°39' W 074°03'0 0.0
2017-Jul-21 17:30N 40°39' W 074°03'0 0.0
2017-Jul-21 17:01N 40°39' W 074°03'0 0.0
2017-Jul-21 16:31N 40°39' W 074°03'0 0.0
2017-Jul-21 16:01N 40°39' W 074°03'3 6.4
2017-Jul-21 15:31N 40°39' W 074°07'1 3.0
2017-Jul-21 15:00N 40°38' W 074°09'1 1.4
2017-Jul-21 14:28N 40°38' W 074°10'0 0.0
2017-Jul-21 13:55N 40°38' W 074°10'0 0.0
2017-Jul-21 13:28N 40°38' W 074°10'0 0.0
2017-Jul-21 12:55N 40°38' W 074°10'0 0.0
2017-Jul-21 12:28N 40°38' W 074°10'0 0.0
2017-Jul-21 11:58N 40°38' W 074°10'0 0.0
2017-Jul-21 11:29N 40°38' W 074°10'0 0.0
2017-Jul-21 11:00N 40°38' W 074°10'0 0.6
2017-Jul-21 10:30N 40°38' W 074°09'4 8.1
2017-Jul-21 10:01N 40°39' W 074°04'1 2.1
2017-Jul-21 09:28N 40°39' W 074°03'0 0.2
2017-Jul-21 08:58N 40°39' W 074°03'0 0.0
2017-Jul-21 08:28N 40°39' W 074°03'0 0.1
2017-Jul-21 07:58N 40°39' W 074°03'0 0.1
2017-Jul-21 07:28N 40°39' W 074°03'0 0.0
2017-Jul-21 06:58N 40°39' W 074°03'0 0.0
2017-Jul-21 06:28N 40°39' W 074°03'0 0.0
2017-Jul-21 05:58N 40°39' W 074°03'0 0.1
2017-Jul-21 05:28N 40°39' W 074°03'0 0.0
2017-Jul-21 04:58N 40°39' W 074°03'0 0.0
2017-Jul-21 04:25N 40°39' W 074°03'0 0.0
2017-Jul-21 03:55N 40°39' W 074°03'0 0.0
2017-Jul-21 03:28N 40°39' W 074°03'0 0.1
2017-Jul-21 02:55N 40°39' W 074°03'0 0.1
2017-Jul-21 02:19N 40°39' W 074°03'0 0.0
2017-Jul-21 01:58N 40°39' W 074°03'0 0.1
2017-Jul-21 01:28N 40°39' W 074°03'0 0.1
2017-Jul-21 00:58N 40°39' W 074°03'0 0.0
2017-Jul-21 00:28N 40°39' W 074°03'0 0.1
2017-Jul-20 23:58N 40°39' W 074°03'0 0.2
2017-Jul-20 23:28N 40°39' W 074°03'0 0.1
2017-Jul-20 22:55N 40°39' W 074°03'0 0.1
2017-Jul-20 22:28N 40°39' W 074°03'0 0.5
2017-Jul-20 22:00N 40°39' W 074°02'0 0.1
2017-Jul-20 21:30N 40°39' W 074°02'0 0.1
2017-Jul-20 21:00N 40°39' W 074°02'1 2.2
2017-Jul-20 20:30N 40°40' W 074°02'3 6.0
2017-Jul-20 20:00N 40°42' W 073°59'2 4.8
2017-Jul-20 19:30N 40°45' W 073°58'2 4.9
2017-Jul-20 18:59N 40°47' W 073°56'3 5.5
2017-Jul-20 18:25N 40°48' W 073°52'4 7.5
2017-Jul-20 17:53N 40°48' W 073°47'52 8.2
2017-Jul-20 11:30N 41°06' W 072°42'5 9.8
2017-Jul-20 11:00N 41°08' W 072°36'510.6
2017-Jul-20 10:30N 41°09' W 072°29'510.5
2017-Jul-20 10:00N 41°10' W 072°22'510.4
2017-Jul-20 09:30N 41°12' W 072°16'510.2
2017-Jul-20 09:00N 41°14' W 072°09'6 9.1
2017-Jul-20 08:20N 41°14' W 072°01'3 9.1
2017-Jul-20 08:00N 41°15' W 071°57'4 8.3
2017-Jul-20 07:30N 41°16' W 071°52'5 8.8
2017-Jul-20 06:53N 41°17' W 071°45'75 7.2
2017-Jul-19 20:28N 42°08' W 070°32'4 8.6
2017-Jul-19 20:01N 42°12' W 070°35'4 8.5
2017-Jul-19 19:30N 42°15' W 070°38'6 8.7
2017-Jul-19 18:47N 42°20' W 070°44'2 8.4
2017-Jul-19 18:30N 42°21' W 070°47'4 8.3
2017-Jul-19 18:00N 42°23' W 070°52'4 8.5
2017-Jul-19 17:30N 42°21' W 070°56'4 7.6
2017-Jul-19 17:00N 42°21' W 071°01'1 1.7
2017-Jul-19 16:31N 42°22' W 071°02'0 0.0
2017-Jul-19 16:00N 42°22' W 071°02'0 0.1
2017-Jul-19 15:30N 42°22' W 071°02'2 3.1
2017-Jul-19 15:00N 42°23' W 071°02'0 0.7
2017-Jul-19 14:30N 42°23' W 071°01'0 0.0
2017-Jul-19 13:17N 42°23' W 071°01'0 0.0
2017-Jul-19 12:05N 42°23' W 071°01'0 0.0
2017-Jul-19 11:11N 42°23' W 071°01'0 0.0
2017-Jul-19 10:59N 42°23' W 071°01'0 0.0
2017-Jul-19 08:17N 42°23' W 071°01'0 0.0
2017-Jul-19 07:50N 42°23' W 071°01'0 0.0
2017-Jul-19 07:26N 42°23' W 071°01'0 0.0
2017-Jul-19 06:59N 42°23' W 071°01'0 0.0
2017-Jul-19 06:26N 42°23' W 071°01'0 0.0
2017-Jul-19 02:53N 42°23' W 071°01'0 0.0
2017-Jul-19 02:29N 42°23' W 071°01'0 0.0
2017-Jul-19 01:59N 42°23' W 071°01'0 0.0
2017-Jul-19 00:47N 42°23' W 071°01'0 0.0
2017-Jul-19 00:23N 42°23' W 071°01'0 0.0
2017-Jul-18 23:53N 42°23' W 071°01'0 0.0
2017-Jul-18 23:23N 42°23' W 071°01'0 0.0
2017-Jul-18 22:53N 42°23' W 071°01'0 0.0
2017-Jul-18 22:29N 42°23' W 071°01'0 0.0
2017-Jul-18 21:56N 42°23' W 071°01'0 0.0
2017-Jul-18 21:29N 42°23' W 071°01'0 0.1
2017-Jul-18 20:26N 42°23' W 071°01'1 0.8
2017-Jul-18 19:48N 42°24' W 071°01'1 2.7
2017-Jul-18 19:30N 42°23' W 071°02'1 2.7
2017-Jul-18 19:01N 42°22' W 071°03'0 0.8
2017-Jul-18 18:28N 42°22' W 071°02'0 0.0
2017-Jul-18 17:58N 42°22' W 071°02'0 0.1
2017-Jul-18 17:25N 42°21' W 071°02'0 0.1
2017-Jul-18 16:58N 42°21' W 071°02'0 0.1
2017-Jul-18 16:28N 42°21' W 071°02'0 0.0
2017-Jul-18 15:58N 42°21' W 071°02'0 0.1
2017-Jul-18 15:28N 42°21' W 071°02'0 0.0
2017-Jul-18 14:58N 42°21' W 071°02'0 0.0
2017-Jul-18 13:58N 42°21' W 071°02'0 0.0
2017-Jul-18 13:28N 42°21' W 071°02'0 0.0
2017-Jul-18 12:58N 42°21' W 071°02'0 0.0
2017-Jul-18 12:28N 42°21' W 071°02'0 0.0
2017-Jul-18 11:58N 42°21' W 071°02'0 0.1
2017-Jul-18 11:28N 42°22' W 071°02'0 0.1
2017-Jul-18 10:58N 42°22' W 071°02'0 0.1
2017-Jul-18 10:28N 42°22' W 071°02'0 0.1
2017-Jul-18 09:58N 42°22' W 071°02'0 0.0
2017-Jul-18 09:28N 42°22' W 071°02'0 0.0
2017-Jul-18 08:58N 42°22' W 071°02'0 0.0
2017-Jul-18 08:28N 42°22' W 071°02'0 0.1
2017-Jul-18 07:58N 42°22' W 071°02'0 0.0
2017-Jul-18 07:28N 42°22' W 071°02'0 0.0
2017-Jul-18 06:58N 42°22' W 071°02'0 0.0
2017-Jul-18 06:28N 42°22' W 071°02'0 0.0
2017-Jul-18 05:58N 42°22' W 071°02'0 0.1
2017-Jul-18 05:28N 42°22' W 071°02'0 0.1
2017-Jul-18 04:52N 42°22' W 071°02'0 0.1
2017-Jul-18 04:28N 42°22' W 071°02'0 0.0
2017-Jul-18 03:58N 42°21' W 071°02'0 0.0
2017-Jul-18 03:28N 42°21' W 071°02'0 0.0
2017-Jul-18 02:58N 42°21' W 071°02'0 0.0
2017-Jul-18 02:28N 42°21' W 071°02'0 0.1
2017-Jul-18 01:58N 42°22' W 071°02'0 0.0
2017-Jul-18 01:28N 42°22' W 071°02'0 0.0
2017-Jul-18 00:58N 42°22' W 071°02'0 0.0
2017-Jul-18 00:25N 42°22' W 071°02'0 0.0
2017-Jul-17 23:58N 42°22' W 071°02'0 0.0
2017-Jul-17 23:28N 42°22' W 071°02'0 0.1
2017-Jul-17 22:55N 42°22' W 071°02'0 0.0
2017-Jul-17 22:28N 42°22' W 071°02'0 0.1
2017-Jul-17 21:58N 42°22' W 071°02'0 0.0
2017-Jul-17 21:28N 42°22' W 071°02'0 0.1
2017-Jul-17 20:58N 42°22' W 071°02'0 0.0
2017-Jul-17 20:31N 42°22' W 071°02'0 0.0
2017-Jul-17 20:01N 42°22' W 071°02'0 0.0
2017-Jul-17 19:31N 42°22' W 071°02'0 0.0
2017-Jul-17 19:00N 42°22' W 071°02'0 0.0
2017-Jul-17 18:31N 42°22' W 071°02'0 0.1
2017-Jul-17 18:01N 42°22' W 071°02'0 0.3
2017-Jul-17 17:30N 42°21' W 071°02'0 0.1
2017-Jul-17 17:01N 42°21' W 071°02'2 4.8
2017-Jul-17 16:30N 42°20' W 070°59'3 6.1
2017-Jul-17 16:01N 42°21' W 070°56'3 6.3
2017-Jul-17 15:30N 42°23' W 070°52'3 7.0
2017-Jul-17 15:01N 42°21' W 070°48'4 7.2
2017-Jul-17 14:30N 42°20' W 070°44'4 7.0
2017-Jul-17 14:01N 42°18' W 070°40'4 7.1
2017-Jul-17 13:30N 42°15' W 070°36'4 6.9
2017-Jul-17 12:54N 42°12' W 070°32'3 7.2
2017-Jul-17 12:31N 42°09' W 070°31'4 7.3
2017-Jul-17 12:00N 42°06' W 070°30'4 7.3
2017-Jul-17 11:30N 42°02' W 070°29'5 7.4
2017-Jul-17 10:52N 41°58' W 070°28'3 7.1
2017-Jul-17 10:30N 41°55' W 070°27'3 7.0
2017-Jul-17 10:00N 41°52' W 070°27'4 6.8
2017-Jul-17 09:25N 41°48' W 070°28'94 6.3
2017-Jul-16 18:36N 41°10' W 072°23'1 5.5
2017-Jul-16 18:30N 41°10' W 072°24'5 5.2
2017-Jul-16 17:36N 41°09' W 072°30'0 5.4
2017-Jul-16 17:30N 41°09' W 072°31'3 5.6
2017-Jul-16 17:00N 41°08' W 072°34'3 6.4
2017-Jul-16 16:30N 41°07' W 072°38'55 6.9
2017-Jul-16 08:28N 40°48' W 073°47'3 6.4
2017-Jul-16 08:00N 40°48' W 073°51'3 5.9
2017-Jul-16 07:30N 40°47' W 073°55'3 6.9
2017-Jul-16 07:01N 40°45' W 073°58'3 6.4
2017-Jul-16 06:31N 40°42' W 074°00'3 6.7
2017-Jul-16 06:00N 40°39' W 074°03'1 2.4
2017-Jul-16 05:31N 40°38' W 074°03'0 0.2
2017-Jul-16 05:01N 40°38' W 074°04'0 0.1
2017-Jul-16 04:30N 40°38' W 074°04'1 1.1
2017-Jul-16 04:01N 40°39' W 074°04'1 2.9
2017-Jul-16 03:31N 40°39' W 074°06'1 2.6
2017-Jul-16 03:00N 40°39' W 074°08'1 2.3
2017-Jul-16 02:30N 40°39' W 074°09'2 3.8
2017-Jul-16 02:00N 40°38' W 074°12'1 1.9
2017-Jul-16 01:30N 40°38' W 074°12'0 0.0
2017-Jul-16 00:46N 40°38' W 074°12'0 0.0
2017-Jul-16 00:19N 40°38' W 074°12'0 0.0
2017-Jul-15 23:55N 40°38' W 074°12'0 0.0
2017-Jul-15 23:25N 40°38' W 074°12'0 0.0
2017-Jul-15 22:58N 40°38' W 074°12'0 0.0
2017-Jul-15 22:19N 40°38' W 074°12'0 0.0
2017-Jul-15 21:58N 40°38' W 074°12'0 0.0
2017-Jul-15 21:25N 40°38' W 074°12'0 0.0
2017-Jul-15 20:58N 40°38' W 074°12'0 0.0
2017-Jul-15 20:28N 40°38' W 074°12'0 0.0
2017-Jul-15 19:55N 40°38' W 074°12'0 0.0
2017-Jul-15 19:28N 40°38' W 074°12'0 0.0
2017-Jul-15 18:55N 40°38' W 074°12'0 0.0
2017-Jul-15 18:25N 40°38' W 074°12'0 0.0
2017-Jul-15 17:55N 40°38' W 074°12'0 0.0
2017-Jul-15 17:25N 40°38' W 074°12'0 0.0
2017-Jul-15 16:58N 40°38' W 074°12'0 0.0
2017-Jul-15 16:25N 40°38' W 074°12'0 0.0
2017-Jul-15 15:55N 40°38' W 074°12'0 0.0
2017-Jul-15 15:25N 40°38' W 074°12'0 0.0
2017-Jul-15 14:55N 40°38' W 074°12'0 0.0
2017-Jul-15 13:58N 40°38' W 074°12'0 0.0
2017-Jul-15 13:25N 40°38' W 074°12'0 0.0
2017-Jul-15 11:49N 40°38' W 074°12'0 0.0
2017-Jul-15 11:19N 40°38' W 074°12'0 0.0
2017-Jul-15 10:43N 40°38' W 074°12'0 0.0
2017-Jul-15 10:01N 40°38' W 074°12'0 0.0
2017-Jul-15 09:55N 40°38' W 074°12'0 0.0
2017-Jul-15 09:19N 40°38' W 074°12'0 0.0
2017-Jul-15 07:43N 40°38' W 074°12'0 0.0
2017-Jul-15 07:07N 40°38' W 074°12'0 0.0
2017-Jul-15 06:43N 40°38' W 074°12'0 0.0
2017-Jul-15 06:22N 40°38' W 074°12'0 0.0
2017-Jul-15 05:55N 40°38' W 074°12'0 0.0
2017-Jul-15 05:25N 40°38' W 074°12'0 0.0
2017-Jul-15 04:55N 40°38' W 074°12'0 0.0
2017-Jul-15 04:25N 40°38' W 074°12'0 0.0
2017-Jul-15 03:49N 40°38' W 074°12'0 0.0
2017-Jul-15 03:19N 40°38' W 074°12'0 0.0
2017-Jul-15 02:37N 40°38' W 074°12'0 0.0
2017-Jul-15 02:19N 40°38' W 074°12'0 0.0
2017-Jul-15 01:37N 40°38' W 074°12'0 0.0
2017-Jul-15 01:19N 40°38' W 074°12'0 0.0
2017-Jul-15 00:37N 40°38' W 074°12'0 0.0
2017-Jul-15 00:25N 40°38' W 074°12'0 0.0
2017-Jul-14 23:58N 40°38' W 074°12'0 0.0
2017-Jul-14 23:28N 40°38' W 074°12'0 0.0
2017-Jul-14 22:25N 40°38' W 074°12'0 0.0
2017-Jul-14 21:55N 40°38' W 074°12'0 0.0
2017-Jul-14 21:16N 40°38' W 074°12'0 0.0
2017-Jul-14 20:55N 40°38' W 074°12'0 0.0
2017-Jul-14 20:25N 40°38' W 074°12'0 0.0
2017-Jul-14 19:55N 40°38' W 074°12'0 0.0
2017-Jul-14 19:25N 40°38' W 074°12'0 0.0
2017-Jul-14 18:46N 40°38' W 074°12'0 0.0
2017-Jul-14 18:22N 40°38' W 074°12'0 0.0
2017-Jul-14 17:55N 40°38' W 074°12'0 0.0
2017-Jul-14 17:28N 40°38' W 074°12'0 0.0
2017-Jul-14 16:58N 40°38' W 074°12'0 0.0
2017-Jul-14 15:37N 40°38' W 074°12'0 0.0
2017-Jul-14 15:25N 40°38' W 074°12'0 0.0
2017-Jul-14 14:43N 40°38' W 074°12'0 0.0
2017-Jul-14 14:25N 40°38' W 074°12'0 0.0
2017-Jul-14 13:58N 40°38' W 074°12'0 0.0
2017-Jul-14 12:13N 40°38' W 074°12'0 0.0
2017-Jul-14 11:46N 40°38' W 074°12'0 0.0
2017-Jul-14 11:28N 40°38' W 074°12'0 0.0
2017-Jul-14 10:46N 40°38' W 074°12'0 0.0
2017-Jul-14 10:28N 40°38' W 074°12'0 0.0
2017-Jul-14 09:55N 40°38' W 074°12'0 0.0
2017-Jul-14 09:28N 40°38' W 074°12'0 0.0
2017-Jul-14 08:58N 40°38' W 074°12'0 0.0
2017-Jul-14 08:28N 40°38' W 074°12'0 0.0
2017-Jul-14 07:55N 40°38' W 074°12'0 0.0
2017-Jul-14 07:25N 40°38' W 074°12'0 0.0
2017-Jul-14 06:55N 40°38' W 074°12'0 0.0
2017-Jul-14 06:16N 40°38' W 074°12'0 0.0
2017-Jul-14 05:52N 40°38' W 074°12'0 0.0
2017-Jul-14 05:28N 40°38' W 074°12'0 0.0
2017-Jul-14 04:52N 40°38' W 074°12'0 0.0
2017-Jul-14 04:25N 40°38' W 074°12'0 0.0
2017-Jul-14 03:55N 40°38' W 074°12'0 0.0
2017-Jul-14 03:25N 40°38' W 074°12'0 0.0
2017-Jul-14 02:55N 40°38' W 074°12'0 0.0
2017-Jul-14 01:46N 40°38' W 074°12'0 0.0
2017-Jul-14 01:07N 40°38' W 074°12'0 0.0
2017-Jul-14 01:00N 40°38' W 074°12'0 0.0
2017-Jul-14 00:30N 40°38' W 074°12'0 0.4
2017-Jul-14 00:00N 40°37' W 074°12'7 3.4
2017-Jul-13 21:50N 40°30' W 074°10'1 0.2
2017-Jul-13 12:41N 40°30' W 074°09'0 0.0
2017-Jul-13 12:23N 40°30' W 074°09'0 0.0
2017-Jul-13 11:23N 40°29' W 074°09'0 0.3
2017-Jul-13 10:47N 40°30' W 074°08'0 0.0
2017-Jul-13 10:20N 40°30' W 074°08'0 0.0
2017-Jul-13 09:59N 40°30' W 074°08'0 0.0
2017-Jul-13 09:26N 40°30' W 074°08'0 0.0
2017-Jul-13 08:47N 40°30' W 074°08'0 0.1
2017-Jul-13 08:29N 40°30' W 074°08'0 0.0
2017-Jul-13 06:59N 40°30' W 074°08'0 0.0
2017-Jul-12 20:56N 40°30' W 074°08'  
Track history (hours):
 
Tides and Currents Weather Stations Pressure Air Temp Water Temp Dewpoint Dewpoint Depression Visibility Wind Speed Wind Dir Waves Ship Positions

Mckinley Sea

Owner: Kirby Offshore Marine, LLC, Staten Island, NY. More information available from US FCC via Universal Licensing System and Coast Guard Vessel Documentation Center.

Last reported at 2017-Jul-22 18:03 UTC. Time now 2017-Jul-23 10:52 UTC.
Position N 40°30' W 074°09'.

Length 41 m; draft 6 m.

Type: . MMSI: 367360980.

Date/timePositionNaut miles runAvg speedWind from/ knotsBaromVisibWave heightAir tempDewpointWater temp
2017-Jul-22 18:03N 40°30' W 074°09'0 0.0
2017-Jul-22 08:23N 40°30' W 074°09'3 6.8
2017-Jul-22 08:00N 40°29' W 074°05'3 5.7
2017-Jul-22 07:28N 40°31' W 074°03'4 8.8
2017-Jul-22 07:00N 40°35' W 074°02'4 8.2
2017-Jul-22 06:31N 40°39' W 074°03'0 0.4
2017-Jul-22 05:58N 40°39' W 074°03'0 0.0
2017-Jul-22 05:28N 40°39' W 074°03'0 0.0
2017-Jul-22 04:58N 40°39' W 074°03'0 0.0
2017-Jul-22 04:28N 40°39' W 074°03'0 0.1
2017-Jul-22 03:58N 40°39' W 074°03'0 0.0
2017-Jul-22 03:28N 40°39' W 074°03'0 0.4
2017-Jul-22 03:00N 40°39' W 074°03'3 5.0
2017-Jul-22 02:28N 40°39' W 074°07'0 0.0
2017-Jul-22 01:58N 40°39' W 074°07'0 0.0
2017-Jul-22 01:28N 40°39' W 074°07'0 0.0
2017-Jul-22 00:58N 40°39' W 074°07'0 0.0
2017-Jul-22 00:28N 40°39' W 074°07'0 0.0
2017-Jul-21 23:58N 40°39' W 074°07'0 0.0
2017-Jul-21 23:22N 40°39' W 074°07'0 0.0
2017-Jul-21 22:58N 40°39' W 074°07'0 0.0
2017-Jul-21 22:28N 40°39' W 074°07'0 0.8
2017-Jul-21 22:00N 40°39' W 074°06'3 5.3
2017-Jul-21 21:30N 40°39' W 074°03'0 0.0
2017-Jul-21 21:00N 40°39' W 074°03'0 0.1
2017-Jul-21 20:30N 40°39' W 074°03'0 0.1
2017-Jul-21 20:00N 40°39' W 074°03'0 0.1
2017-Jul-21 19:30N 40°39' W 074°03'0 0.0
2017-Jul-21 19:00N 40°39' W 074°03'0 0.0
2017-Jul-21 18:30N 40°39' W 074°03'0 0.0
2017-Jul-21 18:00N 40°39' W 074°03'0 0.0
2017-Jul-21 17:30N 40°39' W 074°03'0 0.0
2017-Jul-21 17:01N 40°39' W 074°03'0 0.0
2017-Jul-21 16:31N 40°39' W 074°03'0 0.0
2017-Jul-21 16:01N 40°39' W 074°03'3 6.4
2017-Jul-21 15:31N 40°39' W 074°07'1 3.0
2017-Jul-21 15:00N 40°38' W 074°09'1 1.4
2017-Jul-21 14:28N 40°38' W 074°10'0 0.0
2017-Jul-21 13:55N 40°38' W 074°10'0 0.0
2017-Jul-21 13:28N 40°38' W 074°10'0 0.0
2017-Jul-21 12:55N 40°38' W 074°10'0 0.0
2017-Jul-21 12:28N 40°38' W 074°10'0 0.0
2017-Jul-21 11:58N 40°38' W 074°10'0 0.0
2017-Jul-21 11:29N 40°38' W 074°10'0 0.0
2017-Jul-21 11:00N 40°38' W 074°10'0 0.6
2017-Jul-21 10:30N 40°38' W 074°09'4 8.1
2017-Jul-21 10:01N 40°39' W 074°04'1 2.1
2017-Jul-21 09:28N 40°39' W 074°03'0 0.2
2017-Jul-21 08:58N 40°39' W 074°03'0 0.0
2017-Jul-21 08:28N 40°39' W 074°03'0 0.1
2017-Jul-21 07:58N 40°39' W 074°03'0 0.1
2017-Jul-21 07:28N 40°39' W 074°03'0 0.0
2017-Jul-21 06:58N 40°39' W 074°03'0 0.0
2017-Jul-21 06:28N 40°39' W 074°03'0 0.0
2017-Jul-21 05:58N 40°39' W 074°03'0 0.1
2017-Jul-21 05:28N 40°39' W 074°03'0 0.0
2017-Jul-21 04:58N 40°39' W 074°03'0 0.0
2017-Jul-21 04:25N 40°39' W 074°03'0 0.0
2017-Jul-21 03:55N 40°39' W 074°03'0 0.0
2017-Jul-21 03:28N 40°39' W 074°03'0 0.1
2017-Jul-21 02:55N 40°39' W 074°03'0 0.1
2017-Jul-21 02:19N 40°39' W 074°03'0 0.0
2017-Jul-21 01:58N 40°39' W 074°03'0 0.1
2017-Jul-21 01:28N 40°39' W 074°03'0 0.1
2017-Jul-21 00:58N 40°39' W 074°03'0 0.0
2017-Jul-21 00:28N 40°39' W 074°03'0 0.1
2017-Jul-20 23:58N 40°39' W 074°03'0 0.2
2017-Jul-20 23:28N 40°39' W 074°03'0 0.1
2017-Jul-20 22:55N 40°39' W 074°03'0 0.1
2017-Jul-20 22:28N 40°39' W 074°03'0 0.5
2017-Jul-20 22:00N 40°39' W 074°02'0 0.1
2017-Jul-20 21:30N 40°39' W 074°02'0 0.1
2017-Jul-20 21:00N 40°39' W 074°02'1 2.2
2017-Jul-20 20:30N 40°40' W 074°02'3 6.0
2017-Jul-20 20:00N 40°42' W 073°59'2 4.8
2017-Jul-20 19:30N 40°45' W 073°58'2 4.9
2017-Jul-20 18:59N 40°47' W 073°56'3 5.5
2017-Jul-20 18:25N 40°48' W 073°52'4 7.5
2017-Jul-20 17:53N 40°48' W 073°47'52 8.2
2017-Jul-20 11:30N 41°06' W 072°42'5 9.8
2017-Jul-20 11:00N 41°08' W 072°36'510.6
2017-Jul-20 10:30N 41°09' W 072°29'510.5
2017-Jul-20 10:00N 41°10' W 072°22'510.4
2017-Jul-20 09:30N 41°12' W 072°16'510.2
2017-Jul-20 09:00N 41°14' W 072°09'6 9.1
2017-Jul-20 08:20N 41°14' W 072°01'3 9.1
2017-Jul-20 08:00N 41°15' W 071°57'4 8.3
2017-Jul-20 07:30N 41°16' W 071°52'5 8.8
2017-Jul-20 06:53N 41°17' W 071°45'75 7.2
2017-Jul-19 20:28N 42°08' W 070°32'4 8.6
2017-Jul-19 20:01N 42°12' W 070°35'4 8.5
2017-Jul-19 19:30N 42°15' W 070°38'6 8.7
2017-Jul-19 18:47N 42°20' W 070°44'2 8.4
2017-Jul-19 18:30N 42°21' W 070°47'4 8.3
2017-Jul-19 18:00N 42°23' W 070°52'4 8.5
2017-Jul-19 17:30N 42°21' W 070°56'4 7.6
2017-Jul-19 17:00N 42°21' W 071°01'1 1.7
2017-Jul-19 16:31N 42°22' W 071°02'0 0.0
2017-Jul-19 16:00N 42°22' W 071°02'0 0.1
2017-Jul-19 15:30N 42°22' W 071°02'2 3.1
2017-Jul-19 15:00N 42°23' W 071°02'0 0.7
2017-Jul-19 14:30N 42°23' W 071°01'0 0.0
2017-Jul-19 13:17N 42°23' W 071°01'0 0.0
2017-Jul-19 12:05N 42°23' W 071°01'0 0.0
2017-Jul-19 11:11N 42°23' W 071°01'0 0.0
2017-Jul-19 10:59N 42°23' W 071°01'0 0.0
2017-Jul-19 08:17N 42°23' W 071°01'0 0.0
2017-Jul-19 07:50N 42°23' W 071°01'0 0.0
2017-Jul-19 07:26N 42°23' W 071°01'0 0.0
2017-Jul-19 06:59N 42°23' W 071°01'0 0.0
2017-Jul-19 06:26N 42°23' W 071°01'0 0.0
2017-Jul-19 02:53N 42°23' W 071°01'0 0.0
2017-Jul-19 02:29N 42°23' W 071°01'0 0.0
2017-Jul-19 01:59N 42°23' W 071°01'0 0.0
2017-Jul-19 00:47N 42°23' W 071°01'0 0.0
2017-Jul-19 00:23N 42°23' W 071°01'0 0.0
2017-Jul-18 23:53N 42°23' W 071°01'0 0.0
2017-Jul-18 23:23N 42°23' W 071°01'0 0.0
2017-Jul-18 22:53N 42°23' W 071°01'0 0.0
2017-Jul-18 22:29N 42°23' W 071°01'0 0.0
2017-Jul-18 21:56N 42°23' W 071°01'0 0.0
2017-Jul-18 21:29N 42°23' W 071°01'0 0.1
2017-Jul-18 20:26N 42°23' W 071°01'1 0.8
2017-Jul-18 19:48N 42°24' W 071°01'1 2.7
2017-Jul-18 19:30N 42°23' W 071°02'1 2.7
2017-Jul-18 19:01N 42°22' W 071°03'0 0.8
2017-Jul-18 18:28N 42°22' W 071°02'0 0.0
2017-Jul-18 17:58N 42°22' W 071°02'0 0.1
2017-Jul-18 17:25N 42°21' W 071°02'0 0.1
2017-Jul-18 16:58N 42°21' W 071°02'0 0.1
2017-Jul-18 16:28N 42°21' W 071°02'0 0.0
2017-Jul-18 15:58N 42°21' W 071°02'0 0.1
2017-Jul-18 15:28N 42°21' W 071°02'0 0.0
2017-Jul-18 14:58N 42°21' W 071°02'0 0.0
2017-Jul-18 13:58N 42°21' W 071°02'0 0.0
2017-Jul-18 13:28N 42°21' W 071°02'0 0.0
2017-Jul-18 12:58N 42°21' W 071°02'0 0.0
2017-Jul-18 12:28N 42°21' W 071°02'0 0.0
2017-Jul-18 11:58N 42°21' W 071°02'0 0.1
2017-Jul-18 11:28N 42°22' W 071°02'0 0.1
2017-Jul-18 10:58N 42°22' W 071°02'0 0.1
2017-Jul-18 10:28N 42°22' W 071°02'0 0.1
2017-Jul-18 09:58N 42°22' W 071°02'0 0.0
2017-Jul-18 09:28N 42°22' W 071°02'0 0.0
2017-Jul-18 08:58N 42°22' W 071°02'0 0.0
2017-Jul-18 08:28N 42°22' W 071°02'0 0.1
2017-Jul-18 07:58N 42°22' W 071°02'0 0.0
2017-Jul-18 07:28N 42°22' W 071°02'0 0.0
2017-Jul-18 06:58N 42°22' W 071°02'0 0.0
2017-Jul-18 06:28N 42°22' W 071°02'0 0.0
2017-Jul-18 05:58N 42°22' W 071°02'0 0.1
2017-Jul-18 05:28N 42°22' W 071°02'0 0.1
2017-Jul-18 04:52N 42°22' W 071°02'0 0.1
2017-Jul-18 04:28N 42°22' W 071°02'0 0.0
2017-Jul-18 03:58N 42°21' W 071°02'0 0.0
2017-Jul-18 03:28N 42°21' W 071°02'0 0.0
2017-Jul-18 02:58N 42°21' W 071°02'0 0.0
2017-Jul-18 02:28N 42°21' W 071°02'0 0.1
2017-Jul-18 01:58N 42°22' W 071°02'0 0.0
2017-Jul-18 01:28N 42°22' W 071°02'0 0.0
2017-Jul-18 00:58N 42°22' W 071°02'0 0.0
2017-Jul-18 00:25N 42°22' W 071°02'0 0.0
2017-Jul-17 23:58N 42°22' W 071°02'0 0.0
2017-Jul-17 23:28N 42°22' W 071°02'0 0.1
2017-Jul-17 22:55N 42°22' W 071°02'0 0.0
2017-Jul-17 22:28N 42°22' W 071°02'0 0.1
2017-Jul-17 21:58N 42°22' W 071°02'0 0.0
2017-Jul-17 21:28N 42°22' W 071°02'0 0.1
2017-Jul-17 20:58N 42°22' W 071°02'0 0.0
2017-Jul-17 20:31N 42°22' W 071°02'0 0.0
2017-Jul-17 20:01N 42°22' W 071°02'0 0.0
2017-Jul-17 19:31N 42°22' W 071°02'0 0.0
2017-Jul-17 19:00N 42°22' W 071°02'0 0.0
2017-Jul-17 18:31N 42°22' W 071°02'0 0.1
2017-Jul-17 18:01N 42°22' W 071°02'0 0.3
2017-Jul-17 17:30N 42°21' W 071°02'0 0.1
2017-Jul-17 17:01N 42°21' W 071°02'2 4.8
2017-Jul-17 16:30N 42°20' W 070°59'3 6.1
2017-Jul-17 16:01N 42°21' W 070°56'3 6.3
2017-Jul-17 15:30N 42°23' W 070°52'3 7.0
2017-Jul-17 15:01N 42°21' W 070°48'4 7.2
2017-Jul-17 14:30N 42°20' W 070°44'4 7.0
2017-Jul-17 14:01N 42°18' W 070°40'4 7.1
2017-Jul-17 13:30N 42°15' W 070°36'4 6.9
2017-Jul-17 12:54N 42°12' W 070°32'3 7.2
2017-Jul-17 12:31N 42°09' W 070°31'4 7.3
2017-Jul-17 12:00N 42°06' W 070°30'4 7.3
2017-Jul-17 11:30N 42°02' W 070°29'5 7.4
2017-Jul-17 10:52N 41°58' W 070°28'3 7.1
2017-Jul-17 10:30N 41°55' W 070°27'3 7.0
2017-Jul-17 10:00N 41°52' W 070°27'4 6.8
2017-Jul-17 09:25N 41°48' W 070°28'94 6.3
2017-Jul-16 18:36N 41°10' W 072°23'1 5.5
2017-Jul-16 18:30N 41°10' W 072°24'5 5.2
2017-Jul-16 17:36N 41°09' W 072°30'0 5.4
2017-Jul-16 17:30N 41°09' W 072°31'3 5.6
2017-Jul-16 17:00N 41°08' W 072°34'3 6.4
2017-Jul-16 16:30N 41°07' W 072°38'55 6.9
2017-Jul-16 08:28N 40°48' W 073°47'3 6.4
2017-Jul-16 08:00N 40°48' W 073°51'3 5.9
2017-Jul-16 07:30N 40°47' W 073°55'3 6.9
2017-Jul-16 07:01N 40°45' W 073°58'3 6.4
2017-Jul-16 06:31N 40°42' W 074°00'3 6.7
2017-Jul-16 06:00N 40°39' W 074°03'1 2.4
2017-Jul-16 05:31N 40°38' W 074°03'0 0.2
2017-Jul-16 05:01N 40°38' W 074°04'0 0.1
2017-Jul-16 04:30N 40°38' W 074°04'1 1.1
2017-Jul-16 04:01N 40°39' W 074°04'1 2.9
2017-Jul-16 03:31N 40°39' W 074°06'1 2.6
2017-Jul-16 03:00N 40°39' W 074°08'1 2.3
2017-Jul-16 02:30N 40°39' W 074°09'2 3.8
2017-Jul-16 02:00N 40°38' W 074°12'1 1.9
2017-Jul-16 01:30N 40°38' W 074°12'0 0.0
2017-Jul-16 00:46N 40°38' W 074°12'0 0.0
2017-Jul-16 00:19N 40°38' W 074°12'0 0.0
2017-Jul-15 23:55N 40°38' W 074°12'0 0.0
2017-Jul-15 23:25N 40°38' W 074°12'0 0.0
2017-Jul-15 22:58N 40°38' W 074°12'0 0.0
2017-Jul-15 22:19N 40°38' W 074°12'0 0.0
2017-Jul-15 21:58N 40°38' W 074°12'0 0.0
2017-Jul-15 21:25N 40°38' W 074°12'0 0.0
2017-Jul-15 20:58N 40°38' W 074°12'0 0.0
2017-Jul-15 20:28N 40°38' W 074°12'0 0.0
2017-Jul-15 19:55N 40°38' W 074°12'0 0.0
2017-Jul-15 19:28N 40°38' W 074°12'0 0.0
2017-Jul-15 18:55N 40°38' W 074°12'0 0.0
2017-Jul-15 18:25N 40°38' W 074°12'0 0.0
2017-Jul-15 17:55N 40°38' W 074°12'0 0.0
2017-Jul-15 17:25N 40°38' W 074°12'0 0.0
2017-Jul-15 16:58N 40°38' W 074°12'0 0.0
2017-Jul-15 16:25N 40°38' W 074°12'0 0.0
2017-Jul-15 15:55N 40°38' W 074°12'0 0.0
2017-Jul-15 15:25N 40°38' W 074°12'0 0.0
2017-Jul-15 14:55N 40°38' W 074°12'0 0.0
2017-Jul-15 13:58N 40°38' W 074°12'0 0.0
2017-Jul-15 13:25N 40°38' W 074°12'0 0.0
2017-Jul-15 11:49N 40°38' W 074°12'0 0.0
2017-Jul-15 11:19N 40°38' W 074°12'0 0.0
2017-Jul-15 10:43N 40°38' W 074°12'0 0.0
2017-Jul-15 10:01N 40°38' W 074°12'0 0.0
2017-Jul-15 09:55N 40°38' W 074°12'0 0.0
2017-Jul-15 09:19N 40°38' W 074°12'0 0.0
2017-Jul-15 07:43N 40°38' W 074°12'0 0.0
2017-Jul-15 07:07N 40°38' W 074°12'0 0.0
2017-Jul-15 06:43N 40°38' W 074°12'0 0.0
2017-Jul-15 06:22N 40°38' W 074°12'0 0.0
2017-Jul-15 05:55N 40°38' W 074°12'0 0.0
2017-Jul-15 05:25N 40°38' W 074°12'0 0.0
2017-Jul-15 04:55N 40°38' W 074°12'0 0.0
2017-Jul-15 04:25N 40°38' W 074°12'0 0.0
2017-Jul-15 03:49N 40°38' W 074°12'0 0.0
2017-Jul-15 03:19N 40°38' W 074°12'0 0.0
2017-Jul-15 02:37N 40°38' W 074°12'0 0.0
2017-Jul-15 02:19N 40°38' W 074°12'0 0.0
2017-Jul-15 01:37N 40°38' W 074°12'0 0.0
2017-Jul-15 01:19N 40°38' W 074°12'0 0.0
2017-Jul-15 00:37N 40°38' W 074°12'0 0.0
2017-Jul-15 00:25N 40°38' W 074°12'0 0.0
2017-Jul-14 23:58N 40°38' W 074°12'0 0.0
2017-Jul-14 23:28N 40°38' W 074°12'0 0.0
2017-Jul-14 22:25N 40°38' W 074°12'0 0.0
2017-Jul-14 21:55N 40°38' W 074°12'0 0.0
2017-Jul-14 21:16N 40°38' W 074°12'0 0.0
2017-Jul-14 20:55N 40°38' W 074°12'0 0.0
2017-Jul-14 20:25N 40°38' W 074°12'0 0.0
2017-Jul-14 19:55N 40°38' W 074°12'0 0.0
2017-Jul-14 19:25N 40°38' W 074°12'0 0.0
2017-Jul-14 18:46N 40°38' W 074°12'0 0.0
2017-Jul-14 18:22N 40°38' W 074°12'0 0.0
2017-Jul-14 17:55N 40°38' W 074°12'0 0.0
2017-Jul-14 17:28N 40°38' W 074°12'0 0.0
2017-Jul-14 16:58N 40°38' W 074°12'0 0.0
2017-Jul-14 15:37N 40°38' W 074°12'0 0.0
2017-Jul-14 15:25N 40°38' W 074°12'0 0.0
2017-Jul-14 14:43N 40°38' W 074°12'0 0.0
2017-Jul-14 14:25N 40°38' W 074°12'0 0.0
2017-Jul-14 13:58N 40°38' W 074°12'0 0.0
2017-Jul-14 12:13N 40°38' W 074°12'0 0.0
2017-Jul-14 11:46N 40°38' W 074°12'0 0.0
2017-Jul-14 11:28N 40°38' W 074°12'0 0.0
2017-Jul-14 10:46N 40°38' W 074°12'0 0.0
2017-Jul-14 10:28N 40°38' W 074°12'0 0.0
2017-Jul-14 09:55N 40°38' W 074°12'0 0.0
2017-Jul-14 09:28N 40°38' W 074°12'0 0.0
2017-Jul-14 08:58N 40°38' W 074°12'0 0.0
2017-Jul-14 08:28N 40°38' W 074°12'0 0.0
2017-Jul-14 07:55N 40°38' W 074°12'0 0.0
2017-Jul-14 07:25N 40°38' W 074°12'0 0.0
2017-Jul-14 06:55N 40°38' W 074°12'0 0.0
2017-Jul-14 06:16N 40°38' W 074°12'0 0.0
2017-Jul-14 05:52N 40°38' W 074°12'0 0.0
2017-Jul-14 05:28N 40°38' W 074°12'0 0.0
2017-Jul-14 04:52N 40°38' W 074°12'0 0.0
2017-Jul-14 04:25N 40°38' W 074°12'0 0.0
2017-Jul-14 03:55N 40°38' W 074°12'0 0.0
2017-Jul-14 03:25N 40°38' W 074°12'0 0.0
2017-Jul-14 02:55N 40°38' W 074°12'0 0.0
2017-Jul-14 01:46N 40°38' W 074°12'0 0.0
2017-Jul-14 01:07N 40°38' W 074°12'0 0.0
2017-Jul-14 01:00N 40°38' W 074°12'0 0.0
2017-Jul-14 00:30N 40°38' W 074°12'0 0.4
2017-Jul-14 00:00N 40°37' W 074°12'7 3.4
2017-Jul-13 21:50N 40°30' W 074°10'1 0.2
2017-Jul-13 12:41N 40°30' W 074°09'0 0.0
2017-Jul-13 12:23N 40°30' W 074°09'0 0.0
2017-Jul-13 11:23N 40°29' W 074°09'0 0.3
2017-Jul-13 10:47N 40°30' W 074°08'0 0.0
2017-Jul-13 10:20N 40°30' W 074°08'0 0.0
2017-Jul-13 09:59N 40°30' W 074°08'0 0.0
2017-Jul-13 09:26N 40°30' W 074°08'0 0.0
2017-Jul-13 08:47N 40°30' W 074°08'0 0.1
2017-Jul-13 08:29N 40°30' W 074°08'0 0.0
2017-Jul-13 06:59N 40°30' W 074°08'0 0.0
2017-Jul-12 20:56N 40°30' W 074°08'  

Dump ship's entire track history